sensor_id;sensor_type;location;lat;lon;timestamp;temperature;humidity
38265;DHT22;24062;47.480;8.768;2022-10-19T00:01:19;13.50;68.10
38265;DHT22;24062;47.480;8.768;2022-10-19T00:03:48;13.50;68.20
38265;DHT22;24062;47.480;8.768;2022-10-19T00:06:18;13.50;68.20
38265;DHT22;24062;47.480;8.768;2022-10-19T00:08:49;13.50;68.30
38265;DHT22;24062;47.480;8.768;2022-10-19T00:11:16;13.40;68.20
38265;DHT22;24062;47.480;8.768;2022-10-19T00:13:43;13.40;68.30
38265;DHT22;24062;47.480;8.768;2022-10-19T00:16:12;13.40;68.40
38265;DHT22;24062;47.480;8.768;2022-10-19T00:18:41;13.30;68.30
38265;DHT22;24062;47.480;8.768;2022-10-19T00:21:10;13.30;68.50
38265;DHT22;24062;47.480;8.768;2022-10-19T00:23:38;13.30;68.50
38265;DHT22;24062;47.480;8.768;2022-10-19T00:26:05;13.30;68.60
38265;DHT22;24062;47.480;8.768;2022-10-19T00:28:32;13.20;68.70
38265;DHT22;24062;47.480;8.768;2022-10-19T00:31:02;13.20;68.70
38265;DHT22;24062;47.480;8.768;2022-10-19T00:33:29;13.20;68.80
38265;DHT22;24062;47.480;8.768;2022-10-19T00:35:57;13.20;68.90
38265;DHT22;24062;47.480;8.768;2022-10-19T00:38:24;13.20;69.00
38265;DHT22;24062;47.480;8.768;2022-10-19T00:40:51;13.20;69.10
38265;DHT22;24062;47.480;8.768;2022-10-19T00:43:20;13.20;69.10
38265;DHT22;24062;47.480;8.768;2022-10-19T00:45:47;13.10;69.20
38265;DHT22;24062;47.480;8.768;2022-10-19T00:48:18;13.10;69.10
38265;DHT22;24062;47.480;8.768;2022-10-19T00:50:47;13.00;69.20
38265;DHT22;24062;47.480;8.768;2022-10-19T00:53:16;13.00;69.10
38265;DHT22;24062;47.480;8.768;2022-10-19T00:55:43;12.90;69.10
38265;DHT22;24062;47.480;8.768;2022-10-19T00:58:10;13.00;69.30
38265;DHT22;24062;47.480;8.768;2022-10-19T01:00:38;12.90;69.30
38265;DHT22;24062;47.480;8.768;2022-10-19T01:03:07;12.90;69.60
38265;DHT22;24062;47.480;8.768;2022-10-19T01:05:35;12.90;69.70
38265;DHT22;24062;47.480;8.768;2022-10-19T01:08:02;12.90;69.60
38265;DHT22;24062;47.480;8.768;2022-10-19T01:10:44;12.90;69.70
38265;DHT22;24062;47.480;8.768;2022-10-19T01:13:26;12.80;69.80
38265;DHT22;24062;47.480;8.768;2022-10-19T01:16:00;12.80;69.90
38265;DHT22;24062;47.480;8.768;2022-10-19T01:18:35;12.80;69.90
38265;DHT22;24062;47.480;8.768;2022-10-19T01:21:22;12.80;70.00
38265;DHT22;24062;47.480;8.768;2022-10-19T01:27:24;12.80;70.00
38265;DHT22;24062;47.480;8.768;2022-10-19T01:30:05;12.70;69.80
38265;DHT22;24062;47.480;8.768;2022-10-19T01:32:43;12.70;69.70
38265;DHT22;24062;47.480;8.768;2022-10-19T01:35:17;12.70;69.80
38265;DHT22;24062;47.480;8.768;2022-10-19T01:37:49;12.60;69.80
38265;DHT22;24062;47.480;8.768;2022-10-19T01:40:27;12.60;70.10
38265;DHT22;24062;47.480;8.768;2022-10-19T01:42:58;12.60;70.10
38265;DHT22;24062;47.480;8.768;2022-10-19T01:45:32;12.50;70.10
38265;DHT22;24062;47.480;8.768;2022-10-19T01:48:08;12.50;70.20
38265;DHT22;24062;47.480;8.768;2022-10-19T01:50:39;12.50;70.40
38265;DHT22;24062;47.480;8.768;2022-10-19T01:53:09;12.50;70.40
38265;DHT22;24062;47.480;8.768;2022-10-19T01:55:39;12.50;70.50
38265;DHT22;24062;47.480;8.768;2022-10-19T01:58:10;12.50;70.60
38265;DHT22;24062;47.480;8.768;2022-10-19T02:00:42;12.50;70.50
38265;DHT22;24062;47.480;8.768;2022-10-19T02:03:10;12.50;70.60
38265;DHT22;24062;47.480;8.768;2022-10-19T02:05:38;12.50;70.60
38265;DHT22;24062;47.480;8.768;2022-10-19T02:08:11;12.50;70.60
38265;DHT22;24062;47.480;8.768;2022-10-19T02:10:40;12.40;70.50
38265;DHT22;24062;47.480;8.768;2022-10-19T02:13:10;12.40;70.60
38265;DHT22;24062;47.480;8.768;2022-10-19T02:15:41;12.40;70.80
38265;DHT22;24062;47.480;8.768;2022-10-19T02:18:10;12.30;70.70
38265;DHT22;24062;47.480;8.768;2022-10-19T02:20:38;12.30;70.70
38265;DHT22;24062;47.480;8.768;2022-10-19T02:23:05;12.30;71.00
38265;DHT22;24062;47.480;8.768;2022-10-19T02:25:33;12.30;71.20
38265;DHT22;24062;47.480;8.768;2022-10-19T02:28:01;12.30;71.20
38265;DHT22;24062;47.480;8.768;2022-10-19T02:30:29;12.30;71.10
38265;DHT22;24062;47.480;8.768;2022-10-19T02:32:57;12.30;71.20
38265;DHT22;24062;47.480;8.768;2022-10-19T02:35:25;12.30;71.20
38265;DHT22;24062;47.480;8.768;2022-10-19T02:37:52;12.40;71.40
38265;DHT22;24062;47.480;8.768;2022-10-19T02:40:19;12.40;71.50
38265;DHT22;24062;47.480;8.768;2022-10-19T02:42:49;12.50;71.50
38265;DHT22;24062;47.480;8.768;2022-10-19T02:45:21;12.50;71.60
38265;DHT22;24062;47.480;8.768;2022-10-19T02:47:53;12.50;71.70
38265;DHT22;24062;47.480;8.768;2022-10-19T02:50:22;12.50;72.00
38265;DHT22;24062;47.480;8.768;2022-10-19T02:52:49;12.50;72.00
38265;DHT22;24062;47.480;8.768;2022-10-19T02:55:16;12.60;72.20
38265;DHT22;24062;47.480;8.768;2022-10-19T02:57:43;12.60;72.20
38265;DHT22;24062;47.480;8.768;2022-10-19T03:00:11;12.70;72.30
38265;DHT22;24062;47.480;8.768;2022-10-19T03:02:37;12.60;72.30
38265;DHT22;24062;47.480;8.768;2022-10-19T03:05:05;12.70;72.40
38265;DHT22;24062;47.480;8.768;2022-10-19T03:07:33;12.70;72.30
38265;DHT22;24062;47.480;8.768;2022-10-19T03:10:00;12.70;72.30
38265;DHT22;24062;47.480;8.768;2022-10-19T03:12:27;12.70;72.20
38265;DHT22;24062;47.480;8.768;2022-10-19T03:14:54;12.70;72.20
38265;DHT22;24062;47.480;8.768;2022-10-19T03:17:21;12.70;72.20
38265;DHT22;24062;47.480;8.768;2022-10-19T03:19:48;12.70;72.40
38265;DHT22;24062;47.480;8.768;2022-10-19T03:22:15;12.70;72.40
38265;DHT22;24062;47.480;8.768;2022-10-19T03:24:43;12.70;72.60
38265;DHT22;24062;47.480;8.768;2022-10-19T03:27:10;12.70;72.60
38265;DHT22;24062;47.480;8.768;2022-10-19T03:29:37;12.70;72.70
38265;DHT22;24062;47.480;8.768;2022-10-19T03:32:04;12.70;72.90
38265;DHT22;24062;47.480;8.768;2022-10-19T03:34:31;12.70;72.90
38265;DHT22;24062;47.480;8.768;2022-10-19T03:36:58;12.70;73.10
38265;DHT22;24062;47.480;8.768;2022-10-19T03:39:25;12.70;73.20
38265;DHT22;24062;47.480;8.768;2022-10-19T03:41:53;12.80;73.30
38265;DHT22;24062;47.480;8.768;2022-10-19T03:44:20;12.80;73.50
38265;DHT22;24062;47.480;8.768;2022-10-19T03:46:47;12.90;73.60
38265;DHT22;24062;47.480;8.768;2022-10-19T03:49:14;13.00;73.90
38265;DHT22;24062;47.480;8.768;2022-10-19T03:51:41;13.10;74.10
38265;DHT22;24062;47.480;8.768;2022-10-19T03:54:11;13.10;74.20
38265;DHT22;24062;47.480;8.768;2022-10-19T03:56:39;13.20;74.30
38265;DHT22;24062;47.480;8.768;2022-10-19T03:59:10;13.30;74.40
38265;DHT22;24062;47.480;8.768;2022-10-19T04:01:39;13.40;74.60
38265;DHT22;24062;47.480;8.768;2022-10-19T04:04:09;13.50;74.60
38265;DHT22;24062;47.480;8.768;2022-10-19T04:06:38;13.60;74.80
38265;DHT22;24062;47.480;8.768;2022-10-19T04:09:06;13.60;74.90
38265;DHT22;24062;47.480;8.768;2022-10-19T04:11:34;13.70;75.10
38265;DHT22;24062;47.480;8.768;2022-10-19T04:14:01;13.80;75.10
38265;DHT22;24062;47.480;8.768;2022-10-19T04:16:31;13.80;75.20
38265;DHT22;24062;47.480;8.768;2022-10-19T04:18:58;13.90;75.50
38265;DHT22;24062;47.480;8.768;2022-10-19T04:21:27;13.90;75.60
38265;DHT22;24062;47.480;8.768;2022-10-19T04:23:57;14.00;75.70
38265;DHT22;24062;47.480;8.768;2022-10-19T04:26:24;14.10;75.80
38265;DHT22;24062;47.480;8.768;2022-10-19T04:28:51;14.10;75.70
38265;DHT22;24062;47.480;8.768;2022-10-19T04:31:19;14.10;75.80
38265;DHT22;24062;47.480;8.768;2022-10-19T04:33:47;14.20;76.00
38265;DHT22;24062;47.480;8.768;2022-10-19T04:36:14;14.20;76.90
38265;DHT22;24062;47.480;8.768;2022-10-19T04:38:41;14.30;76.20
38265;DHT22;24062;47.480;8.768;2022-10-19T04:41:10;14.40;76.30
38265;DHT22;24062;47.480;8.768;2022-10-19T04:43:37;14.40;76.30
38265;DHT22;24062;47.480;8.768;2022-10-19T04:46:05;14.50;76.50
38265;DHT22;24062;47.480;8.768;2022-10-19T04:48:34;14.50;76.50
38265;DHT22;24062;47.480;8.768;2022-10-19T04:51:03;14.60;76.60
38265;DHT22;24062;47.480;8.768;2022-10-19T04:53:30;14.60;77.10
38265;DHT22;24062;47.480;8.768;2022-10-19T04:55:57;14.50;76.20
38265;DHT22;24062;47.480;8.768;2022-10-19T04:58:24;14.60;76.10
38265;DHT22;24062;47.480;8.768;2022-10-19T05:00:51;14.60;76.10
38265;DHT22;24062;47.480;8.768;2022-10-19T05:03:18;14.50;76.30
38265;DHT22;24062;47.480;8.768;2022-10-19T05:05:45;14.50;76.40
38265;DHT22;24062;47.480;8.768;2022-10-19T05:08:13;14.50;76.60
38265;DHT22;24062;47.480;8.768;2022-10-19T05:10:40;14.60;76.90
38265;DHT22;24062;47.480;8.768;2022-10-19T05:13:07;14.60;77.20
38265;DHT22;24062;47.480;8.768;2022-10-19T05:15:34;14.70;77.40
38265;DHT22;24062;47.480;8.768;2022-10-19T05:18:01;14.70;77.20
38265;DHT22;24062;47.480;8.768;2022-10-19T05:20:28;14.70;77.20
38265;DHT22;24062;47.480;8.768;2022-10-19T05:22:54;14.70;77.10
38265;DHT22;24062;47.480;8.768;2022-10-19T05:25:23;14.70;77.20
38265;DHT22;24062;47.480;8.768;2022-10-19T05:27:50;14.80;77.30
38265;DHT22;24062;47.480;8.768;2022-10-19T05:30:18;14.80;77.30
38265;DHT22;24062;47.480;8.768;2022-10-19T05:32:46;14.90;77.40
38265;DHT22;24062;47.480;8.768;2022-10-19T05:35:13;14.90;77.30
38265;DHT22;24062;47.480;8.768;2022-10-19T05:37:40;14.90;77.20
38265;DHT22;24062;47.480;8.768;2022-10-19T05:40:08;14.90;77.30
38265;DHT22;24062;47.480;8.768;2022-10-19T05:42:37;14.90;77.20
38265;DHT22;24062;47.480;8.768;2022-10-19T05:45:04;14.90;77.20
38265;DHT22;24062;47.480;8.768;2022-10-19T05:47:33;14.90;78.00
38265;DHT22;24062;47.480;8.768;2022-10-19T05:50:00;14.90;77.30
38265;DHT22;24062;47.480;8.768;2022-10-19T05:52:27;14.90;77.40
38265;DHT22;24062;47.480;8.768;2022-10-19T05:54:54;15.00;77.60
38265;DHT22;24062;47.480;8.768;2022-10-19T05:57:22;15.00;77.60
38265;DHT22;24062;47.480;8.768;2022-10-19T05:59:51;15.00;77.50
38265;DHT22;24062;47.480;8.768;2022-10-19T06:02:21;15.00;77.90
38265;DHT22;24062;47.480;8.768;2022-10-19T06:04:48;15.00;78.00
38265;DHT22;24062;47.480;8.768;2022-10-19T06:07:14;15.10;78.90
38265;DHT22;24062;47.480;8.768;2022-10-19T06:09:41;15.20;78.30
38265;DHT22;24062;47.480;8.768;2022-10-19T06:12:08;15.30;78.40
38265;DHT22;24062;47.480;8.768;2022-10-19T06:14:35;15.30;78.20
38265;DHT22;24062;47.480;8.768;2022-10-19T06:17:03;15.30;78.20
38265;DHT22;24062;47.480;8.768;2022-10-19T06:19:31;15.40;78.30
38265;DHT22;24062;47.480;8.768;2022-10-19T06:21:58;15.40;78.00
38265;DHT22;24062;47.480;8.768;2022-10-19T06:24:24;15.30;77.90
38265;DHT22;24062;47.480;8.768;2022-10-19T06:26:51;15.40;78.30
38265;DHT22;24062;47.480;8.768;2022-10-19T06:29:18;15.40;78.20
38265;DHT22;24062;47.480;8.768;2022-10-19T06:31:46;15.40;78.40
38265;DHT22;24062;47.480;8.768;2022-10-19T06:34:15;15.50;78.60
38265;DHT22;24062;47.480;8.768;2022-10-19T06:36:41;15.60;78.70
38265;DHT22;24062;47.480;8.768;2022-10-19T06:39:08;15.60;78.80
38265;DHT22;24062;47.480;8.768;2022-10-19T06:41:35;15.70;78.70
38265;DHT22;24062;47.480;8.768;2022-10-19T06:44:02;15.70;79.00
38265;DHT22;24062;47.480;8.768;2022-10-19T06:46:29;15.80;79.30
38265;DHT22;24062;47.480;8.768;2022-10-19T06:48:59;15.90;79.40
38265;DHT22;24062;47.480;8.768;2022-10-19T06:51:28;15.90;79.40
38265;DHT22;24062;47.480;8.768;2022-10-19T06:53:56;16.00;80.00
38265;DHT22;24062;47.480;8.768;2022-10-19T06:56:23;16.10;80.20
38265;DHT22;24062;47.480;8.768;2022-10-19T06:58:50;16.20;80.20
38265;DHT22;24062;47.480;8.768;2022-10-19T07:01:17;16.30;80.40
38265;DHT22;24062;47.480;8.768;2022-10-19T07:03:44;16.30;80.30
38265;DHT22;24062;47.480;8.768;2022-10-19T07:06:12;16.40;80.60
38265;DHT22;24062;47.480;8.768;2022-10-19T07:08:41;16.50;80.70
38265;DHT22;24062;47.480;8.768;2022-10-19T07:11:10;16.50;80.60
38265;DHT22;24062;47.480;8.768;2022-10-19T07:13:37;16.60;80.80
38265;DHT22;24062;47.480;8.768;2022-10-19T07:16:05;16.70;80.80
38265;DHT22;24062;47.480;8.768;2022-10-19T07:18:33;16.70;80.90
38265;DHT22;24062;47.480;8.768;2022-10-19T07:21:03;16.70;80.80
38265;DHT22;24062;47.480;8.768;2022-10-19T07:23:32;16.70;80.80
38265;DHT22;24062;47.480;8.768;2022-10-19T07:26:04;16.70;80.80
38265;DHT22;24062;47.480;8.768;2022-10-19T07:28:32;16.70;80.80
38265;DHT22;24062;47.480;8.768;2022-10-19T07:31:04;16.60;81.00
38265;DHT22;24062;47.480;8.768;2022-10-19T07:33:31;16.70;81.20
38265;DHT22;24062;47.480;8.768;2022-10-19T07:35:59;16.60;81.10
38265;DHT22;24062;47.480;8.768;2022-10-19T07:38:26;16.70;81.40
38265;DHT22;24062;47.480;8.768;2022-10-19T07:40:59;16.70;81.60
38265;DHT22;24062;47.480;8.768;2022-10-19T07:43:28;16.70;81.80
38265;DHT22;24062;47.480;8.768;2022-10-19T07:45:59;16.90;82.00
38265;DHT22;24062;47.480;8.768;2022-10-19T07:48:26;16.90;81.70
38265;DHT22;24062;47.480;8.768;2022-10-19T07:50:54;16.90;81.60
38265;DHT22;24062;47.480;8.768;2022-10-19T07:53:21;16.90;81.80
38265;DHT22;24062;47.480;8.768;2022-10-19T07:55:48;17.00;81.90
38265;DHT22;24062;47.480;8.768;2022-10-19T07:58:15;17.00;81.90
38265;DHT22;24062;47.480;8.768;2022-10-19T08:00:43;17.10;81.80
38265;DHT22;24062;47.480;8.768;2022-10-19T08:03:10;17.10;81.80
38265;DHT22;24062;47.480;8.768;2022-10-19T08:05:37;17.10;81.50
38265;DHT22;24062;47.480;8.768;2022-10-19T08:08:04;17.10;81.30
38265;DHT22;24062;47.480;8.768;2022-10-19T08:10:31;17.10;81.80
38265;DHT22;24062;47.480;8.768;2022-10-19T08:12:58;17.10;81.70
38265;DHT22;24062;47.480;8.768;2022-10-19T08:15:25;17.10;81.40
38265;DHT22;24062;47.480;8.768;2022-10-19T08:17:54;17.20;81.70
38265;DHT22;24062;47.480;8.768;2022-10-19T08:20:21;17.20;81.80
38265;DHT22;24062;47.480;8.768;2022-10-19T08:22:48;17.20;81.80
38265;DHT22;24062;47.480;8.768;2022-10-19T08:25:15;17.30;81.90
38265;DHT22;24062;47.480;8.768;2022-10-19T08:27:42;17.30;82.10
38265;DHT22;24062;47.480;8.768;2022-10-19T08:30:10;17.40;82.20
38265;DHT22;24062;47.480;8.768;2022-10-19T08:32:37;17.60;82.40
38265;DHT22;24062;47.480;8.768;2022-10-19T08:35:06;17.70;82.00
38265;DHT22;24062;47.480;8.768;2022-10-19T08:37:33;17.70;81.70
38265;DHT22;24062;47.480;8.768;2022-10-19T08:39:59;17.70;81.70
38265;DHT22;24062;47.480;8.768;2022-10-19T08:42:32;17.70;81.70
38265;DHT22;24062;47.480;8.768;2022-10-19T08:45:21;17.70;81.70
38265;DHT22;24062;47.480;8.768;2022-10-19T08:48:01;17.70;81.50
38265;DHT22;24062;47.480;8.768;2022-10-19T08:50:36;17.70;81.70
38265;DHT22;24062;47.480;8.768;2022-10-19T08:53:06;17.70;81.80
38265;DHT22;24062;47.480;8.768;2022-10-19T08:55:42;17.80;82.20
38265;DHT22;24062;47.480;8.768;2022-10-19T08:58:21;17.90;81.80
38265;DHT22;24062;47.480;8.768;2022-10-19T09:00:54;17.90;81.70
38265;DHT22;24062;47.480;8.768;2022-10-19T09:03:29;18.00;81.70
38265;DHT22;24062;47.480;8.768;2022-10-19T09:06:06;18.00;81.80
38265;DHT22;24062;47.480;8.768;2022-10-19T09:08:37;18.00;81.20
38265;DHT22;24062;47.480;8.768;2022-10-19T09:11:06;18.10;81.50
38265;DHT22;24062;47.480;8.768;2022-10-19T09:13:39;18.20;81.60
38265;DHT22;24062;47.480;8.768;2022-10-19T09:16:10;18.30;81.60
38265;DHT22;24062;47.480;8.768;2022-10-19T09:18:38;18.30;81.10
38265;DHT22;24062;47.480;8.768;2022-10-19T09:21:11;18.30;81.20
38265;DHT22;24062;47.480;8.768;2022-10-19T09:23:46;18.40;81.40
38265;DHT22;24062;47.480;8.768;2022-10-19T09:26:16;18.40;80.60
38265;DHT22;24062;47.480;8.768;2022-10-19T09:28:48;18.40;80.40
38265;DHT22;24062;47.480;8.768;2022-10-19T09:31:21;18.40;80.80
38265;DHT22;24062;47.480;8.768;2022-10-19T09:33:53;18.40;80.70
38265;DHT22;24062;47.480;8.768;2022-10-19T09:36:23;18.50;80.80
38265;DHT22;24062;47.480;8.768;2022-10-19T09:38:55;18.60;80.70
38265;DHT22;24062;47.480;8.768;2022-10-19T09:41:22;18.70;80.80
38265;DHT22;24062;47.480;8.768;2022-10-19T09:43:52;18.90;81.30
38265;DHT22;24062;47.480;8.768;2022-10-19T09:46:35;19.10;81.20
38265;DHT22;24062;47.480;8.768;2022-10-19T09:49:04;19.40;80.80
38265;DHT22;24062;47.480;8.768;2022-10-19T09:51:48;19.50;80.20
38265;DHT22;24062;47.480;8.768;2022-10-19T09:54:32;19.50;79.10
38265;DHT22;24062;47.480;8.768;2022-10-19T09:57:00;19.40;79.20
38265;DHT22;24062;47.480;8.768;2022-10-19T09:59:29;19.50;79.60
38265;DHT22;24062;47.480;8.768;2022-10-19T10:02:12;19.60;78.90
38265;DHT22;24062;47.480;8.768;2022-10-19T10:04:39;19.50;78.70
38265;DHT22;24062;47.480;8.768;2022-10-19T10:07:14;19.50;78.40
38265;DHT22;24062;47.480;8.768;2022-10-19T10:09:42;19.50;78.20
38265;DHT22;24062;47.480;8.768;2022-10-19T10:12:13;19.50;78.50
38265;DHT22;24062;47.480;8.768;2022-10-19T10:14:41;19.60;78.70
38265;DHT22;24062;47.480;8.768;2022-10-19T10:17:14;19.60;78.20
38265;DHT22;24062;47.480;8.768;2022-10-19T10:19:50;19.70;78.20
38265;DHT22;24062;47.480;8.768;2022-10-19T10:22:26;19.70;78.10
38265;DHT22;24062;47.480;8.768;2022-10-19T10:24:54;19.80;78.00
38265;DHT22;24062;47.480;8.768;2022-10-19T10:27:30;19.80;77.70
38265;DHT22;24062;47.480;8.768;2022-10-19T10:29:57;19.80;77.70
38265;DHT22;24062;47.480;8.768;2022-10-19T10:32:24;19.80;77.50
38265;DHT22;24062;47.480;8.768;2022-10-19T10:34:57;19.80;77.40
38265;DHT22;24062;47.480;8.768;2022-10-19T10:37:31;19.90;77.30
38265;DHT22;24062;47.480;8.768;2022-10-19T10:40:01;19.90;77.10
38265;DHT22;24062;47.480;8.768;2022-10-19T10:42:33;19.80;76.70
38265;DHT22;24062;47.480;8.768;2022-10-19T10:45:01;19.80;76.50
38265;DHT22;24062;47.480;8.768;2022-10-19T10:47:28;19.90;77.00
38265;DHT22;24062;47.480;8.768;2022-10-19T10:49:58;20.00;76.60
38265;DHT22;24062;47.480;8.768;2022-10-19T10:52:29;20.00;76.70
38265;DHT22;24062;47.480;8.768;2022-10-19T10:54:58;20.00;76.60
38265;DHT22;24062;47.480;8.768;2022-10-19T10:57:29;20.10;76.40
38265;DHT22;24062;47.480;8.768;2022-10-19T11:00:03;20.10;76.30
38265;DHT22;24062;47.480;8.768;2022-10-19T11:02:40;20.20;76.10
38265;DHT22;24062;47.480;8.768;2022-10-19T11:05:12;20.20;76.00
38265;DHT22;24062;47.480;8.768;2022-10-19T11:07:43;20.30;76.00
38265;DHT22;24062;47.480;8.768;2022-10-19T11:10:19;20.30;76.20
38265;DHT22;24062;47.480;8.768;2022-10-19T11:12:50;20.40;75.70
38265;DHT22;24062;47.480;8.768;2022-10-19T11:15:22;20.50;75.60
38265;DHT22;24062;47.480;8.768;2022-10-19T11:17:56;20.40;74.30
38265;DHT22;24062;47.480;8.768;2022-10-19T11:20:28;20.30;74.20
38265;DHT22;24062;47.480;8.768;2022-10-19T11:23:05;20.20;74.50
38265;DHT22;24062;47.480;8.768;2022-10-19T11:25:41;20.20;74.60
38265;DHT22;24062;47.480;8.768;2022-10-19T11:28:20;20.20;74.50
38265;DHT22;24062;47.480;8.768;2022-10-19T11:30:56;20.20;74.10
38265;DHT22;24062;47.480;8.768;2022-10-19T11:33:37;20.30;74.50
38265;DHT22;24062;47.480;8.768;2022-10-19T11:36:13;20.40;74.30
38265;DHT22;24062;47.480;8.768;2022-10-19T11:38:50;20.40;73.60
38265;DHT22;24062;47.480;8.768;2022-10-19T11:41:25;20.30;73.50
38265;DHT22;24062;47.480;8.768;2022-10-19T11:44:05;20.40;74.10
38265;DHT22;24062;47.480;8.768;2022-10-19T11:46:43;20.80;75.00
38265;DHT22;24062;47.480;8.768;2022-10-19T11:49:24;21.20;75.10
38265;DHT22;24062;47.480;8.768;2022-10-19T11:52:00;21.50;74.10
38265;DHT22;24062;47.480;8.768;2022-10-19T11:54:40;21.80;73.80
38265;DHT22;24062;47.480;8.768;2022-10-19T11:57:12;21.80;73.10
38265;DHT22;24062;47.480;8.768;2022-10-19T11:59:55;22.00;73.40
38265;DHT22;24062;47.480;8.768;2022-10-19T12:02:50;22.40;74.00
38265;DHT22;24062;47.480;8.768;2022-10-19T12:05:23;22.70;73.00
38265;DHT22;24062;47.480;8.768;2022-10-19T12:07:59;22.70;71.50
38265;DHT22;24062;47.480;8.768;2022-10-19T12:10:35;22.70;71.90
38265;DHT22;24062;47.480;8.768;2022-10-19T12:13:06;22.90;72.60
38265;DHT22;24062;47.480;8.768;2022-10-19T12:15:39;23.40;73.30
38265;DHT22;24062;47.480;8.768;2022-10-19T12:18:13;24.00;74.00
38265;DHT22;24062;47.480;8.768;2022-10-19T12:20:45;24.50;72.40
38265;DHT22;24062;47.480;8.768;2022-10-19T12:23:25;24.90;72.30
38265;DHT22;24062;47.480;8.768;2022-10-19T12:25:57;25.20;71.50
38265;DHT22;24062;47.480;8.768;2022-10-19T12:28:27;25.50;70.70
38265;DHT22;24062;47.480;8.768;2022-10-19T12:30:55;25.50;70.40
38265;DHT22;24062;47.480;8.768;2022-10-19T12:33:26;25.60;70.00
38265;DHT22;24062;47.480;8.768;2022-10-19T12:36:14;25.50;68.20
38265;DHT22;24062;47.480;8.768;2022-10-19T12:38:49;25.20;67.90
38265;DHT22;24062;47.480;8.768;2022-10-19T12:41:25;25.10;68.70
38265;DHT22;24062;47.480;8.768;2022-10-19T12:44:05;25.50;70.00
38265;DHT22;24062;47.480;8.768;2022-10-19T12:46:38;25.80;69.20
38265;DHT22;24062;47.480;8.768;2022-10-19T12:49:34;26.10;69.20
38265;DHT22;24062;47.480;8.768;2022-10-19T12:52:03;26.10;68.70
38265;DHT22;24062;47.480;8.768;2022-10-19T12:54:34;26.60;71.80
38265;DHT22;24062;47.480;8.768;2022-10-19T12:57:22;27.30;71.80
38265;DHT22;24062;47.480;8.768;2022-10-19T13:00:04;27.50;68.90
38265;DHT22;24062;47.480;8.768;2022-10-19T13:02:35;28.00;70.30
38265;DHT22;24062;47.480;8.768;2022-10-19T13:05:03;28.50;70.30
38265;DHT22;24062;47.480;8.768;2022-10-19T13:07:33;29.10;70.80
38265;DHT22;24062;47.480;8.768;2022-10-19T13:10:03;29.60;70.20
38265;DHT22;24062;47.480;8.768;2022-10-19T13:12:44;30.10;68.40
38265;DHT22;24062;47.480;8.768;2022-10-19T13:21:47;31.70;63.80
38265;DHT22;24062;47.480;8.768;2022-10-19T13:24:31;31.90;61.10
38265;DHT22;24062;47.480;8.768;2022-10-19T13:27:24;32.40;61.60
38265;DHT22;24062;47.480;8.768;2022-10-19T13:29:53;33.00;58.80
38265;DHT22;24062;47.480;8.768;2022-10-19T13:32:36;34.10;59.70
38265;DHT22;24062;47.480;8.768;2022-10-19T13:35:25;35.40;57.70
38265;DHT22;24062;47.480;8.768;2022-10-19T13:38:25;36.50;55.00
38265;DHT22;24062;47.480;8.768;2022-10-19T13:41:04;37.40;53.70
38265;DHT22;24062;47.480;8.768;2022-10-19T13:43:34;37.60;50.50
38265;DHT22;24062;47.480;8.768;2022-10-19T13:46:13;36.90;49.30
38265;DHT22;24062;47.480;8.768;2022-10-19T13:52:02;36.60;47.80
38265;DHT22;24062;47.480;8.768;2022-10-19T13:54:50;36.00;46.40
38265;DHT22;24062;47.480;8.768;2022-10-19T13:57:25;35.20;45.70
38265;DHT22;24062;47.480;8.768;2022-10-19T14:00:13;35.00;46.60
38265;DHT22;24062;47.480;8.768;2022-10-19T14:06:04;35.50;45.60
38265;DHT22;24062;47.480;8.768;2022-10-19T14:08:43;35.00;44.10
38265;DHT22;24062;47.480;8.768;2022-10-19T14:11:18;34.00;43.70
38265;DHT22;24062;47.480;8.768;2022-10-19T14:13:46;32.90;43.50
38265;DHT22;24062;47.480;8.768;2022-10-19T14:16:32;31.80;43.90
38265;DHT22;24062;47.480;8.768;2022-10-19T14:19:00;32.20;46.00
38265;DHT22;24062;47.480;8.768;2022-10-19T14:21:32;33.00;45.60
38265;DHT22;24062;47.480;8.768;2022-10-19T14:23:59;34.10;46.20
38265;DHT22;24062;47.480;8.768;2022-10-19T14:26:28;35.90;46.80
38265;DHT22;24062;47.480;8.768;2022-10-19T14:28:57;37.40;45.40
38265;DHT22;24062;47.480;8.768;2022-10-19T14:31:28;38.10;43.60
38265;DHT22;24062;47.480;8.768;2022-10-19T14:34:01;38.20;42.90
38265;DHT22;24062;47.480;8.768;2022-10-19T14:36:32;37.70;41.80
38265;DHT22;24062;47.480;8.768;2022-10-19T14:39:01;36.80;41.20
38265;DHT22;24062;47.480;8.768;2022-10-19T14:41:32;35.80;41.10
38265;DHT22;24062;47.480;8.768;2022-10-19T14:44:01;35.00;41.30
38265;DHT22;24062;47.480;8.768;2022-10-19T14:46:29;34.70;42.10
38265;DHT22;24062;47.480;8.768;2022-10-19T14:48:59;33.90;41.10
38265;DHT22;24062;47.480;8.768;2022-10-19T14:51:33;32.60;40.80
38265;DHT22;24062;47.480;8.768;2022-10-19T14:54:04;31.10;41.30
38265;DHT22;24062;47.480;8.768;2022-10-19T14:56:33;29.60;41.80
38265;DHT22;24062;47.480;8.768;2022-10-19T14:59:04;28.60;42.90
38265;DHT22;24062;47.480;8.768;2022-10-19T15:01:33;28.30;44.90
38265;DHT22;24062;47.480;8.768;2022-10-19T15:04:00;28.60;44.80
38265;DHT22;24062;47.480;8.768;2022-10-19T15:06:30;28.10;44.60
38265;DHT22;24062;47.480;8.768;2022-10-19T15:09:02;27.70;45.30
38265;DHT22;24062;47.480;8.768;2022-10-19T15:11:35;27.40;45.50
38265;DHT22;24062;47.480;8.768;2022-10-19T15:14:06;26.90;45.60
38265;DHT22;24062;47.480;8.768;2022-10-19T15:16:42;26.40;46.00
38265;DHT22;24062;47.480;8.768;2022-10-19T15:19:26;26.10;47.00
38265;DHT22;24062;47.480;8.768;2022-10-19T15:22:11;25.80;47.10
38265;DHT22;24062;47.480;8.768;2022-10-19T15:24:39;25.30;47.60
38265;DHT22;24062;47.480;8.768;2022-10-19T15:27:15;25.00;47.80
38265;DHT22;24062;47.480;8.768;2022-10-19T15:29:53;24.70;48.00
38265;DHT22;24062;47.480;8.768;2022-10-19T15:32:22;24.40;48.30
38265;DHT22;24062;47.480;8.768;2022-10-19T15:34:50;24.20;48.30
38265;DHT22;24062;47.480;8.768;2022-10-19T15:37:22;24.00;48.60
38265;DHT22;24062;47.480;8.768;2022-10-19T15:39:50;23.80;49.30
38265;DHT22;24062;47.480;8.768;2022-10-19T15:42:34;23.70;49.50
38265;DHT22;24062;47.480;8.768;2022-10-19T15:45:03;23.50;49.70
38265;DHT22;24062;47.480;8.768;2022-10-19T15:47:30;23.30;50.00
38265;DHT22;24062;47.480;8.768;2022-10-19T15:49:58;23.10;50.10
38265;DHT22;24062;47.480;8.768;2022-10-19T15:52:28;23.00;50.20
38265;DHT22;24062;47.480;8.768;2022-10-19T15:54:56;22.90;50.50
38265;DHT22;24062;47.480;8.768;2022-10-19T15:57:29;22.80;50.70
38265;DHT22;24062;47.480;8.768;2022-10-19T15:59:58;22.60;50.90
38265;DHT22;24062;47.480;8.768;2022-10-19T16:02:25;22.50;51.20
38265;DHT22;24062;47.480;8.768;2022-10-19T16:04:52;22.40;51.30
38265;DHT22;24062;47.480;8.768;2022-10-19T16:07:24;22.20;51.40
38265;DHT22;24062;47.480;8.768;2022-10-19T16:09:53;22.00;52.10